CheckWX is a tool to help pilots better visualize weather data.  It is not intended as a substitute for an official pre-flight weather briefing.

03:06:54 UTC

SARI TAF
Cataratas Del Iguazú International Airport
Puerto Iguazu, Argentina
TAF SARI 222300Z 2300/2324 05005KT CAVOK TX26/2317Z TN15/2310Z BECMG 2310/2312 3000 +TSRA BKN010 FEW050CB BKN050

Jul-23@
00:00 UTC

Jul-23 @ 00:00 UTC

Jul-23@
10:00 UTC

Jul-23 @ 10:00 UTC

TAF SARI 222300Z 2300/2324 05005KT CAVOK TX26/2317Z TN15/2310Z
Wind
  • 050° at 5 KTS
Cloud Levels
  • No significant clouds

Jul-23@
10:00 UTC

Jul-23 @ 10:00 UTC

Jul-24@
00:00 UTC

Jul-24 @ 00:00 UTC

BECMG 2310/2312 3000 +TSRA BKN010 FEW050CB BKN050

Becoming

Becoming Conditions expected by Tue, Jul 23, 2019 @ 12:00 UTC

Wind
  • 050° at 5 KTS
Conditions
Heavy Thunderstorm, Heavy Rain
Cloud Levels
  • Broken at 1,000' AGL
  • Few at 5,000' AGL
  • Broken at 5,000' AGL